sensor_id;sensor_type;location;lat;lon;timestamp;pressure;altitude;pressure_sealevel;temperature;humidity
57192;BME280;43052;52.588;13.396;2023-04-01T00:00:44;99255.06;;;10.75;76.79
57192;BME280;43052;52.588;13.396;2023-04-01T00:03:09;99250.88;;;10.68;76.96
57192;BME280;43052;52.588;13.396;2023-04-01T00:05:34;99250.03;;;10.68;76.99
57192;BME280;43052;52.588;13.396;2023-04-01T00:08:04;99249.97;;;10.69;77.02
57192;BME280;43052;52.588;13.396;2023-04-01T00:10:29;99243.09;;;10.66;76.97
57192;BME280;43052;52.588;13.396;2023-04-01T00:12:55;99247.34;;;10.71;76.84
57192;BME280;43052;52.588;13.396;2023-04-01T00:15:20;99258.66;;;10.71;76.77
57192;BME280;43052;52.588;13.396;2023-04-01T00:17:45;99242.38;;;10.61;77.00
57192;BME280;43052;52.588;13.396;2023-04-01T00:20:11;99241.63;;;10.58;77.14
57192;BME280;43052;52.588;13.396;2023-04-01T00:22:37;99227.25;;;10.43;77.05
57192;BME280;43052;52.588;13.396;2023-04-01T00:25:03;99248.66;;;10.56;77.40
57192;BME280;43052;52.588;13.396;2023-04-01T00:27:29;99247.00;;;10.53;77.20
57192;BME280;43052;52.588;13.396;2023-04-01T00:29:54;99248.69;;;10.54;77.29
57192;BME280;43052;52.588;13.396;2023-04-01T00:32:20;99246.84;;;10.58;77.16
57192;BME280;43052;52.588;13.396;2023-04-01T00:34:45;99220.31;;;10.42;76.94
57192;BME280;43052;52.588;13.396;2023-04-01T00:37:10;99247.69;;;10.58;77.21
57192;BME280;43052;52.588;13.396;2023-04-01T00:39:36;99223.06;;;10.37;77.21
57192;BME280;43052;52.588;13.396;2023-04-01T00:42:03;99232.47;;;10.43;77.29
57192;BME280;43052;52.588;13.396;2023-04-01T00:44:32;99256.34;;;10.60;77.15
57192;BME280;43052;52.588;13.396;2023-04-01T00:46:58;99253.81;;;10.57;77.09
57192;BME280;43052;52.588;13.396;2023-04-01T00:49:31;99229.03;;;10.41;76.97
57192;BME280;43052;52.588;13.396;2023-04-01T00:51:59;99246.13;;;10.53;77.16
57192;BME280;43052;52.588;13.396;2023-04-01T00:54:28;99228.28;;;10.37;77.27
57192;BME280;43052;52.588;13.396;2023-04-01T00:56:59;99238.72;;;10.37;77.34
57192;BME280;43052;52.588;13.396;2023-04-01T00:59:31;99260.47;;;10.39;77.32
57192;BME280;43052;52.588;13.396;2023-04-01T01:02:00;99250.84;;;10.40;77.53
57192;BME280;43052;52.588;13.396;2023-04-01T01:04:28;99259.19;;;10.53;77.52
57192;BME280;43052;52.588;13.396;2023-04-01T01:12:54;99263.38;;;10.58;77.25
57192;BME280;43052;52.588;13.396;2023-04-01T01:15:40;99245.50;;;10.44;77.19
57192;BME280;43052;52.588;13.396;2023-04-01T01:18:34;99263.38;;;10.58;77.15
57192;BME280;43052;52.588;13.396;2023-04-01T01:26:46;99251.63;;;10.43;77.37
57192;BME280;43052;52.588;13.396;2023-04-01T01:32:17;99268.69;;;10.55;77.29
57192;BME280;43052;52.588;13.396;2023-04-01T01:37:40;99265.16;;;10.58;77.08
57192;BME280;43052;52.588;13.396;2023-04-01T01:40:10;99271.03;;;10.64;77.26
57192;BME280;43052;52.588;13.396;2023-04-01T01:42:46;99247.88;;;10.52;77.16
57192;BME280;43052;52.588;13.396;2023-04-01T01:45:14;99254.72;;;10.56;77.26
57192;BME280;43052;52.588;13.396;2023-04-01T01:47:43;99241.03;;;10.48;77.27
57192;BME280;43052;52.588;13.396;2023-04-01T01:50:09;99267.72;;;10.59;77.32
57192;BME280;43052;52.588;13.396;2023-04-01T01:52:34;99270.19;;;10.64;77.38
57192;BME280;43052;52.588;13.396;2023-04-01T01:55:00;99248.88;;;10.48;77.29
57192;BME280;43052;52.588;13.396;2023-04-01T01:57:28;99266.91;;;10.57;77.33
57192;BME280;43052;52.588;13.396;2023-04-01T01:59:58;99268.56;;;10.60;77.59
57192;BME280;43052;52.588;13.396;2023-04-01T02:02:25;99275.56;;;10.59;77.27
57192;BME280;43052;52.588;13.396;2023-04-01T02:04:52;99273.03;;;10.56;77.52
57192;BME280;43052;52.588;13.396;2023-04-01T02:07:24;99275.50;;;10.61;77.40
57192;BME280;43052;52.588;13.396;2023-04-01T02:09:52;99256.63;;;10.51;77.38
57192;BME280;43052;52.588;13.396;2023-04-01T02:12:19;99277.13;;;10.65;77.60
57192;BME280;43052;52.588;13.396;2023-04-01T02:15:08;99287.53;;;10.66;77.52
57192;BME280;43052;52.588;13.396;2023-04-01T02:17:39;99285.75;;;10.69;77.21
57192;BME280;43052;52.588;13.396;2023-04-01T02:20:18;99263.47;;;10.55;77.04
57192;BME280;43052;52.588;13.396;2023-04-01T02:22:48;99275.38;;;10.65;77.15
57192;BME280;43052;52.588;13.396;2023-04-01T02:25:18;99280.66;;;10.62;77.22
57192;BME280;43052;52.588;13.396;2023-04-01T02:27:44;99283.34;;;10.61;77.38
57192;BME280;43052;52.588;13.396;2023-04-01T02:30:11;99261.88;;;10.49;77.41
57192;BME280;43052;52.588;13.396;2023-04-01T02:32:38;99253.31;;;10.44;77.38
57192;BME280;43052;52.588;13.396;2023-04-01T02:35:06;99274.88;;;10.53;77.35
57192;BME280;43052;52.588;13.396;2023-04-01T02:37:32;99272.19;;;10.54;77.37
57192;BME280;43052;52.588;13.396;2023-04-01T02:40:03;99292.97;;;10.59;77.35
57192;BME280;43052;52.588;13.396;2023-04-01T02:42:29;99246.72;;;10.31;77.60
57192;BME280;43052;52.588;13.396;2023-04-01T02:44:55;99274.19;;;10.46;77.74
57192;BME280;43052;52.588;13.396;2023-04-01T02:47:20;99287.03;;;10.54;77.54
57192;BME280;43052;52.588;13.396;2023-04-01T02:49:45;99287.09;;;10.52;77.49
57192;BME280;43052;52.588;13.396;2023-04-01T02:52:10;99298.19;;;10.60;77.54
57192;BME280;43052;52.588;13.396;2023-04-01T02:54:36;99275.06;;;10.46;77.66
57192;BME280;43052;52.588;13.396;2023-04-01T02:57:01;99272.66;;;10.39;77.78
57192;BME280;43052;52.588;13.396;2023-04-01T02:59:26;99303.50;;;10.57;76.99
57192;BME280;43052;52.588;13.396;2023-04-01T03:01:51;99291.56;;;10.48;77.65
57192;BME280;43052;52.588;13.396;2023-04-01T03:04:17;99294.06;;;10.52;77.49
57192;BME280;43052;52.588;13.396;2023-04-01T03:06:42;99294.94;;;10.52;77.61
57192;BME280;43052;52.588;13.396;2023-04-01T03:09:07;99295.91;;;10.48;78.16
57192;BME280;43052;52.588;13.396;2023-04-01T03:11:32;99281.41;;;10.36;78.00
57192;BME280;43052;52.588;13.396;2023-04-01T03:13:58;99282.44;;;10.30;77.95
57192;BME280;43052;52.588;13.396;2023-04-01T03:16:23;99291.03;;;10.34;78.01
57192;BME280;43052;52.588;13.396;2023-04-01T03:18:49;99300.50;;;10.40;77.94
57192;BME280;43052;52.588;13.396;2023-04-01T03:21:20;99310.88;;;10.43;77.93
57192;BME280;43052;52.588;13.396;2023-04-01T03:23:45;99297.22;;;10.31;77.91
57192;BME280;43052;52.588;13.396;2023-04-01T03:26:10;99310.13;;;10.38;78.17
57192;BME280;43052;52.588;13.396;2023-04-01T03:28:36;99314.38;;;10.42;78.07
57192;BME280;43052;52.588;13.396;2023-04-01T03:31:01;99300.59;;;10.35;77.89
57192;BME280;43052;52.588;13.396;2023-04-01T03:33:26;99323.00;;;10.45;77.93
57192;BME280;43052;52.588;13.396;2023-04-01T03:35:51;99309.16;;;10.42;78.01
57192;BME280;43052;52.588;13.396;2023-04-01T03:38:17;99317.72;;;10.47;77.84
57192;BME280;43052;52.588;13.396;2023-04-01T03:40:43;99299.66;;;10.39;77.94
57192;BME280;43052;52.588;13.396;2023-04-01T03:43:08;99316.75;;;10.51;77.86
57192;BME280;43052;52.588;13.396;2023-04-01T03:45:35;99315.97;;;10.47;77.89
57192;BME280;43052;52.588;13.396;2023-04-01T03:48:00;99327.06;;;10.56;77.97
57192;BME280;43052;52.588;13.396;2023-04-01T03:50:25;99310.78;;;10.46;77.85
57192;BME280;43052;52.588;13.396;2023-04-01T03:52:51;99326.44;;;10.46;77.75
57192;BME280;43052;52.588;13.396;2023-04-01T03:55:16;99323.81;;;10.47;77.83
57192;BME280;43052;52.588;13.396;2023-04-01T03:57:43;99326.56;;;10.43;77.93
57192;BME280;43052;52.588;13.396;2023-04-01T04:00:08;99310.91;;;10.41;77.91
57192;BME280;43052;52.588;13.396;2023-04-01T04:02:34;99327.41;;;10.43;77.84
57192;BME280;43052;52.588;13.396;2023-04-01T04:05:00;99336.00;;;10.47;78.07
57192;BME280;43052;52.588;13.396;2023-04-01T04:07:25;99342.81;;;10.53;78.12
57192;BME280;43052;52.588;13.396;2023-04-01T04:09:51;99333.41;;;10.47;78.20
57192;BME280;43052;52.588;13.396;2023-04-01T04:12:16;99325.75;;;10.41;78.08
57192;BME280;43052;52.588;13.396;2023-04-01T04:14:41;99336.88;;;10.47;78.11
57192;BME280;43052;52.588;13.396;2023-04-01T04:17:06;99337.69;;;10.49;77.92
57192;BME280;43052;52.588;13.396;2023-04-01T04:19:33;99338.56;;;10.50;77.98
57192;BME280;43052;52.588;13.396;2023-04-01T04:21:59;99330.84;;;10.45;78.04
57192;BME280;43052;52.588;13.396;2023-04-01T04:24:26;99336.75;;;10.52;78.36
57192;BME280;43052;52.588;13.396;2023-04-01T04:26:52;99330.00;;;10.43;78.16
57192;BME280;43052;52.588;13.396;2023-04-01T04:29:17;99347.88;;;10.59;78.11
57192;BME280;43052;52.588;13.396;2023-04-01T04:31:42;99347.09;;;10.55;78.26
57192;BME280;43052;52.588;13.396;2023-04-01T04:34:08;99347.94;;;10.57;78.25
57192;BME280;43052;52.588;13.396;2023-04-01T04:36:33;99334.28;;;10.47;78.25
57192;BME280;43052;52.588;13.396;2023-04-01T04:38:59;99354.88;;;10.58;78.23
57192;BME280;43052;52.588;13.396;2023-04-01T04:41:27;99347.22;;;10.52;78.17
57192;BME280;43052;52.588;13.396;2023-04-01T04:43:54;99348.00;;;10.54;78.32
57192;BME280;43052;52.588;13.396;2023-04-01T04:46:21;99368.72;;;10.62;78.15
57192;BME280;43052;52.588;13.396;2023-04-01T04:48:47;99349.84;;;10.50;78.33
57192;BME280;43052;52.588;13.396;2023-04-01T04:51:17;99366.91;;;10.64;78.33
57192;BME280;43052;52.588;13.396;2023-04-01T04:53:43;99376.44;;;10.66;78.12
57192;BME280;43052;52.588;13.396;2023-04-01T04:56:09;99362.63;;;10.61;78.10
57192;BME280;43052;52.588;13.396;2023-04-01T04:58:34;99351.53;;;10.53;78.28
57192;BME280;43052;52.588;13.396;2023-04-01T05:01:06;99371.19;;;10.66;78.36
57192;BME280;43052;52.588;13.396;2023-04-01T05:03:31;99353.28;;;10.53;78.32
57192;BME280;43052;52.588;13.396;2023-04-01T05:05:56;99356.78;;;10.52;78.29
57192;BME280;43052;52.588;13.396;2023-04-01T05:08:21;99380.00;;;10.62;78.41
57192;BME280;43052;52.588;13.396;2023-04-01T05:10:47;99370.59;;;10.57;78.30
57192;BME280;43052;52.588;13.396;2023-04-01T05:13:12;99367.13;;;10.56;78.10
57192;BME280;43052;52.588;13.396;2023-04-01T05:15:37;99374.13;;;10.54;78.35
57192;BME280;43052;52.588;13.396;2023-04-01T05:18:03;99386.31;;;10.55;78.19
57192;BME280;43052;52.588;13.396;2023-04-01T05:20:28;99363.94;;;10.45;78.41
57192;BME280;43052;52.588;13.396;2023-04-01T05:22:58;99365.00;;;10.38;78.25
57192;BME280;43052;52.588;13.396;2023-04-01T05:25:23;99383.94;;;10.46;78.53
57192;BME280;43052;52.588;13.396;2023-04-01T05:27:48;99371.06;;;10.40;78.63
57192;BME280;43052;52.588;13.396;2023-04-01T05:30:13;99377.94;;;10.44;78.54
57192;BME280;43052;52.588;13.396;2023-04-01T05:32:39;99377.94;;;10.42;78.51
57192;BME280;43052;52.588;13.396;2023-04-01T05:35:05;99384.81;;;10.46;78.46
57192;BME280;43052;52.588;13.396;2023-04-01T05:37:30;99375.34;;;10.42;78.45
57192;BME280;43052;52.588;13.396;2023-04-01T05:39:55;99381.13;;;10.54;78.37
57192;BME280;43052;52.588;13.396;2023-04-01T05:42:21;99393.19;;;10.59;78.36
57192;BME280;43052;52.588;13.396;2023-04-01T05:44:46;99390.56;;;10.59;78.27
57192;BME280;43052;52.588;13.396;2023-04-01T05:47:11;99370.63;;;10.55;78.29
57192;BME280;43052;52.588;13.396;2023-04-01T05:49:36;99384.56;;;10.56;78.42
57192;BME280;43052;52.588;13.396;2023-04-01T05:52:02;99381.00;;;10.58;78.56
57192;BME280;43052;52.588;13.396;2023-04-01T05:54:27;99388.69;;;10.64;78.38
57192;BME280;43052;52.588;13.396;2023-04-01T05:56:52;99400.66;;;10.73;78.29
57192;BME280;43052;52.588;13.396;2023-04-01T05:59:17;99402.25;;;10.79;78.17
57192;BME280;43052;52.588;13.396;2023-04-01T06:01:43;99403.13;;;10.78;78.20
57192;BME280;43052;52.588;13.396;2023-04-01T06:04:16;99401.28;;;10.81;78.15
57192;BME280;43052;52.588;13.396;2023-04-01T06:06:42;99400.41;;;10.81;78.01
57192;BME280;43052;52.588;13.396;2023-04-01T06:09:17;99411.56;;;10.88;78.19
57192;BME280;43052;52.588;13.396;2023-04-01T06:14:35;99409.78;;;10.90;77.87
57192;BME280;43052;52.588;13.396;2023-04-01T06:17:27;99400.41;;;10.82;77.74
57192;BME280;43052;52.588;13.396;2023-04-01T06:20:23;99411.66;;;10.85;77.96
57192;BME280;43052;52.588;13.396;2023-04-01T06:26:10;99429.09;;;10.84;77.84
57192;BME280;43052;52.588;13.396;2023-04-01T06:28:45;99444.59;;;10.92;77.81
57192;BME280;43052;52.588;13.396;2023-04-01T06:34:24;99444.53;;;10.93;77.92
57192;BME280;43052;52.588;13.396;2023-04-01T06:37:14;99428.25;;;10.84;77.79
57192;BME280;43052;52.588;13.396;2023-04-01T06:40:02;99442.00;;;10.90;77.54
57192;BME280;43052;52.588;13.396;2023-04-01T06:42:47;99449.66;;;10.98;77.75
57192;BME280;43052;52.588;13.396;2023-04-01T06:45:33;99422.09;;;10.85;77.59
57192;BME280;43052;52.588;13.396;2023-04-01T06:48:04;99446.91;;;11.03;77.51
57192;BME280;43052;52.588;13.396;2023-04-01T06:55:50;99451.09;;;11.08;77.55
57192;BME280;43052;52.588;13.396;2023-04-01T06:58:26;99454.44;;;11.13;77.53
57192;BME280;43052;52.588;13.396;2023-04-01T07:00:57;99441.47;;;11.10;77.25
57192;BME280;43052;52.588;13.396;2023-04-01T07:03:30;99449.25;;;11.12;77.48
57192;BME280;43052;52.588;13.396;2023-04-01T07:06:02;99446.66;;;11.12;77.53
57192;BME280;43052;52.588;13.396;2023-04-01T07:08:28;99441.16;;;11.21;77.50
57192;BME280;43052;52.588;13.396;2023-04-01T07:11:09;99454.63;;;11.37;77.26
57192;BME280;43052;52.588;13.396;2023-04-01T07:13:44;99465.78;;;11.44;77.11
57192;BME280;43052;52.588;13.396;2023-04-01T07:16:39;99450.25;;;11.38;76.71
57192;BME280;43052;52.588;13.396;2023-04-01T07:19:06;99471.69;;;11.51;76.71
57192;BME280;43052;52.588;13.396;2023-04-01T07:21:37;99468.31;;;11.47;76.55
57192;BME280;43052;52.588;13.396;2023-04-01T07:24:27;99470.03;;;11.48;76.74
57192;BME280;43052;52.588;13.396;2023-04-01T07:26:55;99471.78;;;11.48;76.76
57192;BME280;43052;52.588;13.396;2023-04-01T07:29:21;99483.75;;;11.56;76.43
57192;BME280;43052;52.588;13.396;2023-04-01T07:37:18;99474.78;;;11.64;75.77
57192;BME280;43052;52.588;13.396;2023-04-01T07:40:15;99485.97;;;11.69;76.00
57192;BME280;43052;52.588;13.396;2023-04-01T07:48:22;99486.88;;;10.75;75.86
57192;BME280;43052;52.588;13.396;2023-04-01T07:51:11;99489.69;;;10.32;76.66
57192;BME280;43052;52.588;13.396;2023-04-01T07:53:46;99496.97;;;10.19;77.06
57192;BME280;43052;52.588;13.396;2023-04-01T07:56:28;99499.84;;;10.07;77.42
57192;BME280;43052;52.588;13.396;2023-04-01T07:59:04;99504.25;;;10.05;77.88
57192;BME280;43052;52.588;13.396;2023-04-01T08:07:07;99521.06;;;9.93;78.42
57192;BME280;43052;52.588;13.396;2023-04-01T08:12:53;99502.00;;;9.50;79.05
57192;BME280;43052;52.588;13.396;2023-04-01T08:15:29;99510.94;;;9.37;79.89
57192;BME280;43052;52.588;13.396;2023-04-01T08:36:09;99546.88;;;9.24;82.13
57192;BME280;43052;52.588;13.396;2023-04-01T08:38:42;99553.94;;;9.19;81.41
57192;BME280;43052;52.588;13.396;2023-04-01T08:44:11;99563.84;;;9.47;81.12
57192;BME280;43052;52.588;13.396;2023-04-01T08:47:03;99562.94;;;9.46;80.53
57192;BME280;43052;52.588;13.396;2023-04-01T08:52:43;99542.56;;;9.21;80.65
57192;BME280;43052;52.588;13.396;2023-04-01T08:58:06;99567.56;;;9.33;80.67
57192;BME280;43052;52.588;13.396;2023-04-01T09:00:46;99571.63;;;9.48;80.66
57192;BME280;43052;52.588;13.396;2023-04-01T09:06:20;99567.94;;;9.59;79.61
57192;BME280;43052;52.588;13.396;2023-04-01T09:09:14;99572.47;;;9.49;79.38
57192;BME280;43052;52.588;13.396;2023-04-01T09:12:01;99575.16;;;9.44;79.67
57192;BME280;43052;52.588;13.396;2023-04-01T09:14:40;99586.41;;;9.49;79.66
57192;BME280;43052;52.588;13.396;2023-04-01T09:20:39;99581.31;;;9.41;79.08
57192;BME280;43052;52.588;13.396;2023-04-01T09:25:58;99590.03;;;9.40;78.58
57192;BME280;43052;52.588;13.396;2023-04-01T09:28:42;99598.09;;;9.28;78.65
57192;BME280;43052;52.588;13.396;2023-04-01T09:34:12;99593.44;;;9.44;79.58
57192;BME280;43052;52.588;13.396;2023-04-01T09:37:17;99588.97;;;9.51;78.75
57192;BME280;43052;52.588;13.396;2023-04-01T09:40:03;99599.56;;;9.43;77.96
57192;BME280;43052;52.588;13.396;2023-04-01T09:42:56;99610.91;;;9.42;78.66
57192;BME280;43052;52.588;13.396;2023-04-01T09:45:42;99618.00;;;9.34;78.43
57192;BME280;43052;52.588;13.396;2023-04-01T09:48:29;99614.47;;;9.36;78.77
57192;BME280;43052;52.588;13.396;2023-04-01T09:51:20;99628.28;;;9.43;78.58
57192;BME280;43052;52.588;13.396;2023-04-01T09:54:10;99626.50;;;9.44;78.41
57192;BME280;43052;52.588;13.396;2023-04-01T09:56:57;99623.84;;;9.45;78.30
57192;BME280;43052;52.588;13.396;2023-04-01T09:59:47;99634.13;;;9.54;78.16
57192;BME280;43052;52.588;13.396;2023-04-01T10:02:45;99623.84;;;9.47;78.41
57192;BME280;43052;52.588;13.396;2023-04-01T10:10:55;99626.13;;;9.17;78.37
57192;BME280;43052;52.588;13.396;2023-04-01T10:13:38;99626.16;;;9.15;78.73
57192;BME280;43052;52.588;13.396;2023-04-01T10:16:26;99643.38;;;9.24;78.95
57192;BME280;43052;52.588;13.396;2023-04-01T10:21:59;99654.06;;;9.10;79.04
57192;BME280;43052;52.588;13.396;2023-04-01T10:24:49;99645.66;;;8.92;78.94
57192;BME280;43052;52.588;13.396;2023-04-01T10:27:47;99657.78;;;8.95;79.41
57192;BME280;43052;52.588;13.396;2023-04-01T10:42:20;99661.38;;;8.89;79.40
57192;BME280;43052;52.588;13.396;2023-04-01T10:53:25;99670.66;;;9.04;80.26
57192;BME280;43052;52.588;13.396;2023-04-01T10:56:15;99660.34;;;8.98;78.95
57192;BME280;43052;52.588;13.396;2023-04-01T11:02:12;99671.81;;;8.89;79.91
57192;BME280;43052;52.588;13.396;2023-04-01T11:10:54;99687.72;;;8.69;80.38
57192;BME280;43052;52.588;13.396;2023-04-01T11:18:49;99700.09;;;8.55;80.32
57192;BME280;43052;52.588;13.396;2023-04-01T11:24:19;99701.81;;;8.57;80.92
57192;BME280;43052;52.588;13.396;2023-04-01T11:30:08;99697.50;;;8.55;81.09
57192;BME280;43052;52.588;13.396;2023-04-01T11:32:59;99707.75;;;8.66;80.58
57192;BME280;43052;52.588;13.396;2023-04-01T11:38:39;99700.44;;;8.28;80.37
57192;BME280;43052;52.588;13.396;2023-04-01T11:44:17;99701.19;;;8.35;80.77
57192;BME280;43052;52.588;13.396;2023-04-01T11:55:25;99735.41;;;8.07;81.40
57192;BME280;43052;52.588;13.396;2023-04-01T11:58:36;99733.00;;;7.90;80.68
57192;BME280;43052;52.588;13.396;2023-04-01T12:01:16;99755.56;;;7.91;81.40
57192;BME280;43052;52.588;13.396;2023-04-01T12:04:06;99747.06;;;7.74;81.38
57192;BME280;43052;52.588;13.396;2023-04-01T12:09:28;99724.63;;;7.60;81.45
57192;BME280;43052;52.588;13.396;2023-04-01T12:12:23;99762.75;;;7.63;80.92
57192;BME280;43052;52.588;13.396;2023-04-01T12:15:02;99742.13;;;7.44;81.10
57192;BME280;43052;52.588;13.396;2023-04-01T12:17:45;99750.75;;;7.49;81.23
57192;BME280;43052;52.588;13.396;2023-04-01T12:26:30;99764.41;;;7.73;81.85
57192;BME280;43052;52.588;13.396;2023-04-01T12:32:21;99777.13;;;8.04;82.01
57192;BME280;43052;52.588;13.396;2023-04-01T12:40:02;99787.72;;;7.86;80.63
57192;BME280;43052;52.588;13.396;2023-04-01T12:42:50;99799.13;;;7.71;81.69
57192;BME280;43052;52.588;13.396;2023-04-01T12:45:35;99794.78;;;7.73;81.84
57192;BME280;43052;52.588;13.396;2023-04-01T12:51:16;99798.28;;;7.68;81.88
57192;BME280;43052;52.588;13.396;2023-04-01T12:57:29;99807.75;;;7.74;80.42
57192;BME280;43052;52.588;13.396;2023-04-01T13:00:17;99799.31;;;7.50;80.72
57192;BME280;43052;52.588;13.396;2023-04-01T13:03:07;99802.84;;;7.43;81.17
57192;BME280;43052;52.588;13.396;2023-04-01T13:05:56;99768.22;;;7.35;81.56
57192;BME280;43052;52.588;13.396;2023-04-01T13:09:07;99801.94;;;7.46;81.43
57192;BME280;43052;52.588;13.396;2023-04-01T13:14:50;99833.09;;;7.52;81.43
57192;BME280;43052;52.588;13.396;2023-04-01T13:25:24;99842.75;;;7.39;81.05
57192;BME280;43052;52.588;13.396;2023-04-01T13:28:18;99840.19;;;7.36;81.10
57192;BME280;43052;52.588;13.396;2023-04-01T13:31:01;99845.47;;;7.20;81.33
57192;BME280;43052;52.588;13.396;2023-04-01T13:33:50;99858.38;;;7.36;81.38
57192;BME280;43052;52.588;13.396;2023-04-01T13:36:51;99863.53;;;7.42;81.15
57192;BME280;43052;52.588;13.396;2023-04-01T13:39:35;99838.50;;;7.26;81.32
57192;BME280;43052;52.588;13.396;2023-04-01T13:42:16;99860.00;;;7.49;81.02
57192;BME280;43052;52.588;13.396;2023-04-01T13:44:59;99863.53;;;7.42;81.36
57192;BME280;43052;52.588;13.396;2023-04-01T13:55:51;99864.59;;;7.10;81.45
57192;BME280;43052;52.588;13.396;2023-04-01T14:01:10;99894.03;;;7.17;81.37
57192;BME280;43052;52.588;13.396;2023-04-01T14:04:10;99888.88;;;7.11;81.16
57192;BME280;43052;52.588;13.396;2023-04-01T14:07:00;99874.16;;;7.02;80.55
57192;BME280;43052;52.588;13.396;2023-04-01T14:12:29;99900.88;;;7.32;81.20
57192;BME280;43052;52.588;13.396;2023-04-01T14:21:29;99911.41;;;7.09;80.20
57192;BME280;43052;52.588;13.396;2023-04-01T14:24:20;99912.31;;;7.04;80.42
57192;BME280;43052;52.588;13.396;2023-04-01T14:29:29;99883.72;;;6.98;80.64
57192;BME280;43052;52.588;13.396;2023-04-01T14:32:07;99913.97;;;7.13;80.42
57192;BME280;43052;52.588;13.396;2023-04-01T14:37:40;99922.59;;;7.21;80.71
57192;BME280;43052;52.588;13.396;2023-04-01T14:40:26;99900.06;;;7.27;80.63
57192;BME280;43052;52.588;13.396;2023-04-01T14:43:04;99921.72;;;7.27;80.29
57192;BME280;43052;52.588;13.396;2023-04-01T14:48:21;99922.81;;;6.77;79.92
57192;BME280;43052;52.588;13.396;2023-04-01T14:50:54;99952.22;;;6.86;79.78
57192;BME280;43052;52.588;13.396;2023-04-01T14:55:55;99927.13;;;6.71;80.20
57192;BME280;43052;52.588;13.396;2023-04-01T14:58:22;99934.91;;;6.76;80.48
57192;BME280;43052;52.588;13.396;2023-04-01T15:01:00;99936.66;;;6.79;80.86
57192;BME280;43052;52.588;13.396;2023-04-01T15:03:57;99969.50;;;6.97;80.29
57192;BME280;43052;52.588;13.396;2023-04-01T15:06:47;99940.94;;;6.84;80.15
57192;BME280;43052;52.588;13.396;2023-04-01T15:09:32;99955.72;;;6.82;79.53
57192;BME280;43052;52.588;13.396;2023-04-01T15:17:22;99977.34;;;6.80;78.65
57192;BME280;43052;52.588;13.396;2023-04-01T15:20:04;99959.22;;;6.63;78.29
57192;BME280;43052;52.588;13.396;2023-04-01T15:27:55;99961.81;;;6.58;79.54
57192;BME280;43052;52.588;13.396;2023-04-01T15:30:33;99994.72;;;6.70;79.17
57192;BME280;43052;52.588;13.396;2023-04-01T15:33:10;99981.72;;;6.61;79.63
57192;BME280;43052;52.588;13.396;2023-04-01T15:38:33;99993.84;;;6.69;78.69
57192;BME280;43052;52.588;13.396;2023-04-01T15:41:14;99987.81;;;6.63;79.08
57192;BME280;43052;52.588;13.396;2023-04-01T15:43:42;100000.75;;;6.70;79.49
57192;BME280;43052;52.588;13.396;2023-04-01T15:52:03;100008.56;;;6.64;78.76
57192;BME280;43052;52.588;13.396;2023-04-01T15:54:54;100027.63;;;6.71;78.97
57192;BME280;43052;52.588;13.396;2023-04-01T15:57:34;100024.16;;;6.59;78.89
57192;BME280;43052;52.588;13.396;2023-04-01T16:06:02;100026.78;;;6.50;79.85
57192;BME280;43052;52.588;13.396;2023-04-01T16:08:59;100045.84;;;6.60;79.03
57192;BME280;43052;52.588;13.396;2023-04-01T16:19:43;100054.47;;;6.53;78.48
57192;BME280;43052;52.588;13.396;2023-04-01T16:22:28;100054.47;;;6.48;78.53
57192;BME280;43052;52.588;13.396;2023-04-01T16:30:40;100086.50;;;6.66;78.69
57192;BME280;43052;52.588;13.396;2023-04-01T16:33:34;100101.25;;;6.56;78.24
57192;BME280;43052;52.588;13.396;2023-04-01T16:36:12;100091.72;;;6.53;78.08
57192;BME280;43052;52.588;13.396;2023-04-01T16:39:31;100103.81;;;6.48;78.15
57192;BME280;43052;52.588;13.396;2023-04-01T16:42:47;100091.69;;;6.36;77.88
57192;BME280;43052;52.588;13.396;2023-04-01T16:48:18;100099.44;;;6.02;77.93
57192;BME280;43052;52.588;13.396;2023-04-01T16:50:58;100076.84;;;5.83;77.91
57192;BME280;43052;52.588;13.396;2023-04-01T16:53:43;100121.06;;;6.01;78.27
57192;BME280;43052;52.588;13.396;2023-04-01T16:56:16;100131.41;;;5.93;78.30
57192;BME280;43052;52.588;13.396;2023-04-01T16:58:57;100124.41;;;5.78;78.47
57192;BME280;43052;52.588;13.396;2023-04-01T17:04:44;100118.25;;;5.53;78.83
57192;BME280;43052;52.588;13.396;2023-04-01T17:10:13;100149.34;;;5.48;78.71
57192;BME280;43052;52.588;13.396;2023-04-01T17:13:03;100162.19;;;5.27;79.11
57192;BME280;43052;52.588;13.396;2023-04-01T17:16:00;100170.81;;;5.26;78.93
57192;BME280;43052;52.588;13.396;2023-04-01T17:18:42;100175.97;;;5.23;79.46
57192;BME280;43052;52.588;13.396;2023-04-01T17:21:15;100184.56;;;5.14;79.12
57192;BME280;43052;52.588;13.396;2023-04-01T17:23:51;100187.97;;;5.10;79.27
57192;BME280;43052;52.588;13.396;2023-04-01T17:29:24;100161.09;;;4.95;79.93
57192;BME280;43052;52.588;13.396;2023-04-01T17:32:07;100190.56;;;5.10;79.83
57192;BME280;43052;52.588;13.396;2023-04-01T17:35:14;100176.66;;;4.97;79.87
57192;BME280;43052;52.588;13.396;2023-04-01T17:38:03;100193.03;;;4.93;79.90
57192;BME280;43052;52.588;13.396;2023-04-01T17:49:33;100230.19;;;4.95;79.58
57192;BME280;43052;52.588;13.396;2023-04-01T17:57:54;100254.97;;;4.68;79.56
57192;BME280;43052;52.588;13.396;2023-04-01T18:06:04;100249.69;;;4.57;79.88
57192;BME280;43052;52.588;13.396;2023-04-01T18:08:47;100220.06;;;4.32;80.03
57192;BME280;43052;52.588;13.396;2023-04-01T18:16:37;100275.53;;;4.52;80.61
57192;BME280;43052;52.588;13.396;2023-04-01T18:19:28;100291.84;;;4.47;80.48
57192;BME280;43052;52.588;13.396;2023-04-01T18:22:29;100263.97;;;4.24;80.61
57192;BME280;43052;52.588;13.396;2023-04-01T18:25:25;100302.88;;;4.30;81.25
57192;BME280;43052;52.588;13.396;2023-04-01T22:41:50;100709.31;;;3.09;83.87
57192;BME280;43052;52.588;13.396;2023-04-01T22:44:30;100712.53;;;3.01;83.30